RYR8PZ LIPE-ESSA
Flight info
| Callsign | RYR8PZ |
|---|---|
| Flight time | 2h 24m |
| Altitude | 34000 |
| Route | LUMAV L12 VIC DCT ROKIB DCT GIKEB DCT EKPEB DCT BRENO DCT ALUTU DCT RUDNO L132 AGNAV DCT SUPIL DCT KILNU DCT UNRIG DCT BODLA L132 DEMUR N746 GORPI DCT ARMOD Z228 NILUG |
| Aircraft | B738/M-SDE2E3FGHIRWXY/LB1 |
Departure
| Time | 2026-05-01 12:56 |
|---|---|
| Airport | Bologna Guglielmo Marconi Airport (LIPE) |
Arrival
| Time | 2026-05-01 15:20 |
|---|---|
| Airport | Stockholm-Arlanda Airport (ESSA) |
| Time | Latitude | Longitude | Altitude | Speed | Heading |
|---|---|---|---|---|---|
| 2026-05-01 12:38 | 44.53037 | 11.29432 | 126 ft | 0 kts | 206° |
| 2026-05-01 12:48 | 44.53037 | 11.29433 | 126 ft | 1 kts | 206° |
| 2026-05-01 12:48 | 44.53051 | 11.29443 | 121 ft | 3 kts | 205° |
| 2026-05-01 12:48 | 44.53070 | 11.29453 | 123 ft | 3 kts | 188° |
| 2026-05-01 12:49 | 44.53084 | 11.29452 | 122 ft | 3 kts | 134° |
| 2026-05-01 12:49 | 44.53088 | 11.29446 | 123 ft | 0 kts | 116° |
| 2026-05-01 12:52 | 44.53085 | 11.29456 | 122 ft | 1 kts | 116° |
| 2026-05-01 12:52 | 44.53063 | 11.29518 | 126 ft | 12 kts | 112° |
| 2026-05-01 12:53 | 44.53120 | 11.29497 | 125 ft | 15 kts | 297° |
| 2026-05-01 12:53 | 44.53188 | 11.29312 | 124 ft | 28 kts | 297° |
| 2026-05-01 12:53 | 44.53290 | 11.29031 | 124 ft | 37 kts | 297° |
| 2026-05-01 12:54 | 44.53419 | 11.28679 | 123 ft | 43 kts | 297° |
| 2026-05-01 12:54 | 44.53718 | 11.27850 | 123 ft | 52 kts | 295° |
| 2026-05-01 12:54 | 44.53876 | 11.27401 | 121 ft | 46 kts | 297° |
| 2026-05-01 12:55 | 44.54079 | 11.27377 | 123 ft | 20 kts | 117° |
| 2026-05-01 12:55 | 44.53902 | 11.27874 | 124 ft | 96 kts | 117° |
| 2026-05-01 12:55 | 44.53507 | 11.28994 | 163 ft | 156 kts | 116° |
| 2026-05-01 12:56 | 44.52975 | 11.30435 | 758 ft | 172 kts | 117° |
| 2026-05-01 12:56 | 44.52653 | 11.31971 | 1773 ft | 160 kts | 78° |
| 2026-05-01 12:56 | 44.53263 | 11.33251 | 2464 ft | 174 kts | 32° |
| 2026-05-01 12:56 | 44.54428 | 11.34069 | 2953 ft | 195 kts | 28° |
| 2026-05-01 12:57 | 44.55657 | 11.34919 | 3656 ft | 199 kts | 28° |
| 2026-05-01 12:57 | 44.57836 | 11.36174 | 4633 ft | 220 kts | 14° |
| 2026-05-01 12:57 | 44.59994 | 11.36692 | 5087 ft | 253 kts | 11° |
| 2026-05-01 12:58 | 44.61759 | 11.37063 | 5906 ft | 259 kts | 11° |
| 2026-05-01 12:58 | 44.63530 | 11.37440 | 6949 ft | 256 kts | 12° |
| 2026-05-01 12:58 | 44.65200 | 11.37803 | 7765 ft | 259 kts | 13° |
| 2026-05-01 12:59 | 44.68185 | 11.38475 | 9194 ft | 262 kts | 13° |
| 2026-05-01 12:59 | 44.69999 | 11.38891 | 10073 ft | 265 kts | 14° |
| 2026-05-01 12:59 | 44.73770 | 11.39780 | 11022 ft | 296 kts | 14° |
| 2026-05-01 13:00 | 44.78147 | 11.40832 | 11409 ft | 341 kts | 13° |
| 2026-05-01 13:00 | 44.80495 | 11.41394 | 11947 ft | 349 kts | 13° |
| 2026-05-01 13:01 | 44.85342 | 11.42550 | 13413 ft | 355 kts | 13° |
| 2026-05-01 13:01 | 44.87787 | 11.43137 | 14143 ft | 358 kts | 13° |
| 2026-05-01 13:01 | 44.92755 | 11.44335 | 15385 ft | 366 kts | 13° |
| 2026-05-01 13:02 | 44.95273 | 11.44944 | 16017 ft | 369 kts | 13° |
| 2026-05-01 13:07 | 45.52710 | 11.59009 | 25995 ft | 424 kts | 11° |
| 2026-05-01 13:07 | 45.55623 | 11.59729 | 26319 ft | 426 kts | 11° |
| 2026-05-01 13:07 | 45.58551 | 11.60454 | 26628 ft | 428 kts | 11° |
| 2026-05-01 13:08 | 45.61494 | 11.61183 | 26938 ft | 430 kts | 11° |
| 2026-05-01 13:08 | 45.64456 | 11.61919 | 27243 ft | 432 kts | 11° |
| 2026-05-01 13:08 | 45.67427 | 11.62657 | 27541 ft | 434 kts | 11° |
| 2026-05-01 13:08 | 45.70411 | 11.63400 | 27832 ft | 436 kts | 11° |
| 2026-05-01 13:09 | 45.73398 | 11.64144 | 28168 ft | 436 kts | 11° |
| 2026-05-01 13:09 | 45.76348 | 11.64880 | 28609 ft | 435 kts | 11° |
| 2026-05-01 13:09 | 45.79326 | 11.65623 | 29112 ft | 431 kts | 11° |
| 2026-05-01 13:09 | 45.82283 | 11.66362 | 29568 ft | 430 kts | 11° |
| 2026-05-01 13:10 | 45.85230 | 11.67100 | 29947 ft | 430 kts | 11° |
| 2026-05-01 13:10 | 45.88181 | 11.67838 | 30294 ft | 430 kts | 11° |
| 2026-05-01 13:10 | 45.91135 | 11.68525 | 30677 ft | 429 kts | 8° |
| 2026-05-01 13:10 | 45.94123 | 11.68712 | 31085 ft | 429 kts | 1° |
| 2026-05-01 13:11 | 45.97062 | 11.68335 | 31406 ft | 433 kts | 353° |
| 2026-05-01 13:11 | 46.00012 | 11.67496 | 31742 ft | 430 kts | 352° |
| 2026-05-01 13:11 | 46.02928 | 11.66610 | 32053 ft | 429 kts | 351° |
| 2026-05-01 13:11 | 46.05869 | 11.65718 | 32180 ft | 433 kts | 352° |
| 2026-05-01 13:12 | 46.08835 | 11.64837 | 32378 ft | 434 kts | 352° |
| 2026-05-01 13:12 | 46.11788 | 11.63976 | 32760 ft | 432 kts | 352° |
| 2026-05-01 13:12 | 46.14738 | 11.63125 | 33136 ft | 429 kts | 352° |
| 2026-05-01 13:12 | 46.17667 | 11.62283 | 33412 ft | 429 kts | 352° |
| 2026-05-01 13:13 | 46.20605 | 11.61434 | 33637 ft | 431 kts | 352° |
| 2026-05-01 13:13 | 46.23549 | 11.60577 | 33875 ft | 432 kts | 352° |
| 2026-05-01 13:13 | 46.26493 | 11.59717 | 34172 ft | 431 kts | 352° |
| 2026-05-01 13:14 | 46.32360 | 11.58001 | 34285 ft | 434 kts | 352° |
| 2026-05-01 13:14 | 46.38265 | 11.56267 | 34273 ft | 431 kts | 352° |
| 2026-05-01 13:15 | 46.44150 | 11.54539 | 34265 ft | 429 kts | 352° |
| 2026-05-01 13:15 | 46.49996 | 11.52819 | 34276 ft | 428 kts | 352° |
| 2026-05-01 13:16 | 46.55795 | 11.51109 | 34267 ft | 428 kts | 352° |
| 2026-05-01 13:16 | 46.61638 | 11.49382 | 34268 ft | 429 kts | 352° |
| 2026-05-01 13:17 | 46.73382 | 11.45816 | 34295 ft | 432 kts | 351° |
| 2026-05-01 13:18 | 46.82218 | 11.42889 | 34275 ft | 435 kts | 351° |
| 2026-05-01 13:18 | 46.88083 | 11.40958 | 34274 ft | 434 kts | 351° |
| 2026-05-01 13:19 | 46.93997 | 11.39057 | 34291 ft | 435 kts | 354° |
| 2026-05-01 13:19 | 46.99995 | 11.38974 | 34290 ft | 431 kts | 9° |
| 2026-05-01 13:20 | 47.02929 | 11.39846 | 34270 ft | 429 kts | 18° |
| 2026-05-01 13:20 | 47.08630 | 11.42503 | 34280 ft | 430 kts | 20° |
| 2026-05-01 13:21 | 47.17142 | 11.46593 | 34268 ft | 430 kts | 19° |
| 2026-05-01 13:21 | 47.22828 | 11.49282 | 34272 ft | 428 kts | 19° |
| 2026-05-01 13:22 | 47.28507 | 11.51952 | 34258 ft | 429 kts | 19° |
| 2026-05-01 13:22 | 47.34197 | 11.54629 | 34263 ft | 428 kts | 19° |
| 2026-05-01 13:23 | 47.39877 | 11.57308 | 34281 ft | 428 kts | 19° |
| 2026-05-01 13:23 | 47.45516 | 11.59973 | 34296 ft | 428 kts | 19° |
| 2026-05-01 13:24 | 47.51203 | 11.62669 | 34289 ft | 429 kts | 19° |
| 2026-05-01 13:25 | 47.59725 | 11.66719 | 34308 ft | 430 kts | 19° |
| 2026-05-01 13:25 | 47.65424 | 11.69435 | 34313 ft | 430 kts | 19° |
| 2026-05-01 13:26 | 47.71119 | 11.72155 | 34309 ft | 430 kts | 19° |
| 2026-05-01 13:26 | 47.76817 | 11.74884 | 34319 ft | 430 kts | 19° |
| 2026-05-01 13:27 | 47.82481 | 11.77601 | 34319 ft | 430 kts | 19° |
| 2026-05-01 13:27 | 47.91027 | 11.81715 | 34323 ft | 430 kts | 19° |
| 2026-05-01 13:28 | 47.99581 | 11.85847 | 34334 ft | 431 kts | 19° |
| 2026-05-01 13:29 | 48.10996 | 11.91382 | 34338 ft | 431 kts | 19° |
| 2026-05-01 13:31 | 48.28112 | 11.99732 | 34350 ft | 432 kts | 19° |
| 2026-05-01 13:32 | 48.42431 | 12.06763 | 34349 ft | 433 kts | 19° |
| 2026-05-01 13:33 | 48.56728 | 12.13926 | 34358 ft | 434 kts | 20° |
| 2026-05-01 13:34 | 48.68167 | 12.19842 | 34364 ft | 434 kts | 20° |
| 2026-05-01 13:35 | 48.76705 | 12.24260 | 34372 ft | 434 kts | 20° |
| 2026-05-01 13:36 | 48.85286 | 12.28713 | 34378 ft | 434 kts | 20° |
| 2026-05-01 13:36 | 48.93862 | 12.33181 | 34373 ft | 434 kts | 20° |
| 2026-05-01 13:37 | 48.98610 | 12.35661 | 34376 ft | 434 kts | 20° |
| 2026-05-01 13:37 | 49.05295 | 12.39162 | 34375 ft | 434 kts | 20° |
| 2026-05-01 13:38 | 49.13822 | 12.43643 | 34371 ft | 434 kts | 20° |
| 2026-05-01 13:39 | 49.19535 | 12.46654 | 34374 ft | 434 kts | 20° |
| 2026-05-01 13:39 | 49.25257 | 12.49677 | 34379 ft | 434 kts | 20° |
| 2026-05-01 13:40 | 49.30970 | 12.52703 | 34383 ft | 435 kts | 20° |
| 2026-05-01 13:40 | 49.36743 | 12.55279 | 34390 ft | 435 kts | 13° |
| 2026-05-01 13:41 | 49.42691 | 12.57073 | 34386 ft | 436 kts | 12° |
| 2026-05-01 13:41 | 49.48655 | 12.58893 | 34382 ft | 436 kts | 13° |
| 2026-05-01 13:42 | 49.54602 | 12.60790 | 34392 ft | 436 kts | 13° |
| 2026-05-01 13:42 | 49.60563 | 12.62564 | 34386 ft | 437 kts | 10° |
| 2026-05-01 13:43 | 49.66540 | 12.63971 | 34380 ft | 437 kts | 9° |
| 2026-05-01 13:43 | 49.72556 | 12.65367 | 34393 ft | 437 kts | 10° |
| 2026-05-01 13:44 | 49.78577 | 12.66814 | 34395 ft | 437 kts | 10° |
| 2026-05-01 13:44 | 49.84559 | 12.68281 | 34390 ft | 438 kts | 10° |
| 2026-05-01 13:45 | 49.90578 | 12.69765 | 34390 ft | 438 kts | 10° |
| 2026-05-01 13:45 | 49.96603 | 12.71253 | 34391 ft | 438 kts | 10° |
| 2026-05-01 13:46 | 50.02624 | 12.72743 | 34381 ft | 438 kts | 10° |
| 2026-05-01 13:46 | 50.07637 | 12.73987 | 34384 ft | 438 kts | 10° |
| 2026-05-01 13:47 | 50.14647 | 12.75730 | 34371 ft | 439 kts | 10° |
| 2026-05-01 13:47 | 50.19665 | 12.76981 | 34372 ft | 439 kts | 10° |
| 2026-05-01 13:48 | 50.25702 | 12.78490 | 34369 ft | 439 kts | 10° |
| 2026-05-01 13:48 | 50.31748 | 12.80004 | 34374 ft | 439 kts | 10° |
| 2026-05-01 13:49 | 50.37647 | 12.82141 | 34384 ft | 437 kts | 21° |
| 2026-05-01 13:49 | 50.43003 | 12.86639 | 34390 ft | 437 kts | 32° |
| 2026-05-01 13:50 | 50.48267 | 12.91437 | 34380 ft | 437 kts | 24° |
| 2026-05-01 13:50 | 50.54056 | 12.94400 | 34384 ft | 438 kts | 17° |
| 2026-05-01 13:51 | 50.59878 | 12.97068 | 34384 ft | 438 kts | 17° |
| 2026-05-01 13:51 | 50.65726 | 12.99797 | 34391 ft | 438 kts | 17° |
| 2026-05-01 13:52 | 50.71569 | 13.02577 | 34391 ft | 439 kts | 17° |
| 2026-05-01 13:52 | 50.77419 | 13.05386 | 34395 ft | 439 kts | 18° |
| 2026-05-01 13:53 | 50.83266 | 13.08203 | 34389 ft | 439 kts | 18° |
| 2026-05-01 13:53 | 50.92001 | 13.12422 | 34392 ft | 438 kts | 18° |
| 2026-05-01 13:54 | 50.97843 | 13.15253 | 34394 ft | 438 kts | 18° |
| 2026-05-01 13:54 | 51.03680 | 13.18088 | 34387 ft | 438 kts | 18° |
| 2026-05-01 13:55 | 51.09485 | 13.20915 | 34388 ft | 438 kts | 18° |
| 2026-05-01 13:55 | 51.15304 | 13.23757 | 34381 ft | 437 kts | 18° |
| 2026-05-01 13:56 | 51.21126 | 13.26608 | 34385 ft | 437 kts | 18° |
| 2026-05-01 13:56 | 51.26943 | 13.29464 | 34385 ft | 437 kts | 18° |
| 2026-05-01 13:57 | 51.32758 | 13.32326 | 34383 ft | 437 kts | 18° |
| 2026-05-01 13:57 | 51.38530 | 13.35174 | 34373 ft | 437 kts | 18° |
| 2026-05-01 13:58 | 51.44336 | 13.38048 | 34385 ft | 436 kts | 18° |
| 2026-05-01 13:58 | 51.50137 | 13.40926 | 34379 ft | 436 kts | 18° |
| 2026-05-01 13:59 | 51.55936 | 13.43811 | 34383 ft | 436 kts | 18° |
| 2026-05-01 13:59 | 51.61729 | 13.46701 | 34379 ft | 436 kts | 18° |
| 2026-05-01 14:00 | 51.67492 | 13.49584 | 34382 ft | 436 kts | 18° |
| 2026-05-01 14:00 | 51.73283 | 13.52489 | 34372 ft | 436 kts | 18° |
| 2026-05-01 14:01 | 51.79081 | 13.55405 | 34377 ft | 436 kts | 18° |
| 2026-05-01 14:01 | 51.84889 | 13.58332 | 34378 ft | 436 kts | 18° |
| 2026-05-01 14:02 | 51.90655 | 13.61364 | 34375 ft | 436 kts | 20° |
| 2026-05-01 14:02 | 51.96380 | 13.64614 | 34374 ft | 436 kts | 20° |
| 2026-05-01 14:03 | 52.02114 | 13.67894 | 34381 ft | 436 kts | 20° |
| 2026-05-01 14:03 | 52.07802 | 13.71131 | 34385 ft | 436 kts | 20° |
| 2026-05-01 14:04 | 52.13537 | 13.74388 | 34371 ft | 436 kts | 20° |
| 2026-05-01 14:04 | 52.19274 | 13.77650 | 34374 ft | 435 kts | 20° |
| 2026-05-01 14:05 | 52.24999 | 13.80915 | 34380 ft | 435 kts | 20° |
| 2026-05-01 14:05 | 52.30718 | 13.84185 | 34368 ft | 435 kts | 20° |
| 2026-05-01 14:06 | 52.36398 | 13.87443 | 34376 ft | 435 kts | 20° |
| 2026-05-01 14:06 | 52.42113 | 13.90730 | 34369 ft | 435 kts | 20° |
| 2026-05-01 14:07 | 52.47827 | 13.94024 | 34377 ft | 435 kts | 20° |
| 2026-05-01 14:08 | 52.56408 | 13.98989 | 34377 ft | 436 kts | 20° |
| 2026-05-01 14:08 | 52.62132 | 14.02313 | 34367 ft | 436 kts | 20° |
| 2026-05-01 14:09 | 52.67857 | 14.05646 | 34373 ft | 437 kts | 20° |
| 2026-05-01 14:09 | 52.73552 | 14.08971 | 34374 ft | 437 kts | 20° |
| 2026-05-01 14:10 | 52.79292 | 14.12332 | 34368 ft | 438 kts | 20° |
| 2026-05-01 14:10 | 52.85032 | 14.15702 | 34368 ft | 438 kts | 20° |
| 2026-05-01 14:11 | 52.90784 | 14.19089 | 34371 ft | 438 kts | 20° |
| 2026-05-01 14:11 | 52.99412 | 14.24188 | 34367 ft | 438 kts | 20° |
| 2026-05-01 14:12 | 53.05155 | 14.27593 | 34364 ft | 438 kts | 20° |
| 2026-05-01 14:12 | 53.10868 | 14.30991 | 34361 ft | 438 kts | 20° |
| 2026-05-01 14:13 | 53.15638 | 14.33835 | 34366 ft | 438 kts | 20° |
| 2026-05-01 14:13 | 53.22334 | 14.37840 | 34366 ft | 437 kts | 20° |
| 2026-05-01 14:14 | 53.28030 | 14.41277 | 34365 ft | 437 kts | 21° |
| 2026-05-01 14:14 | 53.33633 | 14.45224 | 34371 ft | 436 kts | 24° |
| 2026-05-01 14:15 | 53.39177 | 14.49377 | 34362 ft | 436 kts | 24° |
| 2026-05-01 14:15 | 53.44714 | 14.53502 | 34363 ft | 435 kts | 24° |
| 2026-05-01 14:16 | 53.50262 | 14.57601 | 34359 ft | 435 kts | 24° |
| 2026-05-01 14:16 | 53.55770 | 14.61666 | 34346 ft | 435 kts | 24° |
| 2026-05-01 14:17 | 53.61312 | 14.65766 | 34354 ft | 434 kts | 24° |
| 2026-05-01 14:17 | 53.66633 | 14.69714 | 34352 ft | 434 kts | 24° |
| 2026-05-01 14:18 | 53.72156 | 14.73825 | 34354 ft | 434 kts | 24° |
| 2026-05-01 14:18 | 53.76762 | 14.77262 | 34361 ft | 434 kts | 24° |
| 2026-05-01 14:19 | 53.83184 | 14.82069 | 34364 ft | 434 kts | 24° |
| 2026-05-01 14:19 | 53.88719 | 14.86225 | 34373 ft | 435 kts | 24° |
| 2026-05-01 14:20 | 53.97017 | 14.92478 | 34379 ft | 435 kts | 24° |
| 2026-05-01 14:21 | 54.02554 | 14.96666 | 34374 ft | 436 kts | 24° |
| 2026-05-01 14:21 | 54.08106 | 15.00877 | 34370 ft | 436 kts | 24° |
| 2026-05-01 14:22 | 54.16415 | 15.07156 | 34374 ft | 437 kts | 24° |
| 2026-05-01 14:22 | 54.21974 | 15.11365 | 34370 ft | 437 kts | 24° |
| 2026-05-01 14:23 | 54.27553 | 15.15607 | 34366 ft | 437 kts | 24° |
| 2026-05-01 14:23 | 54.33090 | 15.19830 | 34367 ft | 438 kts | 24° |
| 2026-05-01 14:24 | 54.38677 | 15.24102 | 34363 ft | 438 kts | 24° |
| 2026-05-01 14:24 | 54.44213 | 15.28362 | 34362 ft | 438 kts | 24° |
| 2026-05-01 14:25 | 54.49778 | 15.32667 | 34359 ft | 439 kts | 24° |
| 2026-05-01 14:25 | 54.55349 | 15.36988 | 34354 ft | 439 kts | 24° |
| 2026-05-01 14:26 | 54.63713 | 15.43498 | 34350 ft | 439 kts | 24° |
| 2026-05-01 14:27 | 54.69263 | 15.47834 | 34349 ft | 440 kts | 24° |
| 2026-05-01 14:27 | 54.74837 | 15.52201 | 34344 ft | 440 kts | 24° |
| 2026-05-01 14:28 | 54.83209 | 15.58788 | 34340 ft | 440 kts | 24° |
| 2026-05-01 14:28 | 54.88759 | 15.63169 | 34336 ft | 440 kts | 24° |
| 2026-05-01 14:29 | 54.94393 | 15.67323 | 34331 ft | 440 kts | 20° |
| 2026-05-01 14:30 | 55.05975 | 15.74290 | 34327 ft | 440 kts | 19° |
| 2026-05-01 14:31 | 55.14645 | 15.79559 | 34319 ft | 440 kts | 19° |
| 2026-05-01 14:31 | 55.20420 | 15.83122 | 34319 ft | 440 kts | 19° |
| 2026-05-01 14:32 | 55.26194 | 15.86702 | 34316 ft | 440 kts | 19° |
| 2026-05-01 14:32 | 55.31935 | 15.90271 | 34312 ft | 439 kts | 19° |
| 2026-05-01 14:33 | 55.37706 | 15.93869 | 34311 ft | 439 kts | 19° |
| 2026-05-01 14:33 | 55.43447 | 15.97460 | 34301 ft | 439 kts | 19° |
| 2026-05-01 14:34 | 55.48237 | 16.00464 | 34302 ft | 439 kts | 19° |
| 2026-05-01 14:34 | 55.54015 | 16.04098 | 34301 ft | 439 kts | 19° |
| 2026-05-01 14:35 | 55.59772 | 16.07729 | 34296 ft | 439 kts | 19° |
| 2026-05-01 14:35 | 55.65520 | 16.11367 | 34293 ft | 438 kts | 19° |
| 2026-05-01 14:36 | 55.71237 | 16.14996 | 34289 ft | 438 kts | 19° |
| 2026-05-01 14:36 | 55.76981 | 16.18654 | 34285 ft | 438 kts | 19° |
| 2026-05-01 14:37 | 55.82720 | 16.22321 | 34284 ft | 438 kts | 19° |
| 2026-05-01 14:37 | 55.88461 | 16.25999 | 34277 ft | 438 kts | 19° |
| 2026-05-01 14:38 | 55.94167 | 16.29668 | 34278 ft | 438 kts | 19° |
| 2026-05-01 14:38 | 55.99905 | 16.33368 | 34269 ft | 438 kts | 19° |
| 2026-05-01 14:39 | 56.05636 | 16.37075 | 34265 ft | 437 kts | 19° |
| 2026-05-01 14:39 | 56.11329 | 16.40769 | 34264 ft | 437 kts | 19° |
| 2026-05-01 14:40 | 56.17051 | 16.44494 | 34262 ft | 437 kts | 19° |
| 2026-05-01 14:40 | 56.22770 | 16.48229 | 34257 ft | 437 kts | 19° |
| 2026-05-01 14:41 | 56.28494 | 16.51979 | 34251 ft | 437 kts | 19° |
| 2026-05-01 14:41 | 56.34182 | 16.55718 | 34245 ft | 437 kts | 19° |
| 2026-05-01 14:42 | 56.39899 | 16.59487 | 34246 ft | 437 kts | 19° |
| 2026-05-01 14:42 | 56.45616 | 16.63269 | 34240 ft | 437 kts | 19° |
| 2026-05-01 14:43 | 56.51329 | 16.67060 | 34239 ft | 437 kts | 18° |
| 2026-05-01 14:43 | 56.57005 | 16.70838 | 34239 ft | 437 kts | 18° |
| 2026-05-01 14:44 | 56.62721 | 16.74656 | 34241 ft | 438 kts | 18° |
| 2026-05-01 14:44 | 56.71303 | 16.80411 | 34229 ft | 438 kts | 18° |
| 2026-05-01 14:45 | 56.79888 | 16.86196 | 34236 ft | 438 kts | 18° |
| 2026-05-01 14:46 | 56.85568 | 16.90039 | 34226 ft | 438 kts | 18° |
| 2026-05-01 14:46 | 56.94142 | 16.95864 | 34221 ft | 438 kts | 18° |
| 2026-05-01 14:47 | 56.99931 | 16.99346 | 34230 ft | 436 kts | 12° |
| 2026-05-01 14:48 | 57.08808 | 17.03021 | 34222 ft | 436 kts | 10° |
| 2026-05-01 14:48 | 57.17693 | 17.06705 | 34216 ft | 436 kts | 11° |
| 2026-05-01 14:49 | 57.29478 | 17.11789 | 34217 ft | 436 kts | 11° |
| 2026-05-01 14:50 | 57.41284 | 17.16936 | 34209 ft | 435 kts | 11° |
| 2026-05-01 14:51 | 57.50144 | 17.20818 | 34212 ft | 435 kts | 11° |
| 2026-05-01 14:52 | 57.58996 | 17.24716 | 34212 ft | 435 kts | 10° |
| 2026-05-01 14:53 | 57.67811 | 17.28616 | 34210 ft | 436 kts | 10° |
| 2026-05-01 14:53 | 57.73714 | 17.31239 | 34211 ft | 436 kts | 10° |
| 2026-05-01 14:54 | 57.79619 | 17.33872 | 34204 ft | 436 kts | 10° |
| 2026-05-01 14:54 | 57.85535 | 17.36519 | 34203 ft | 437 kts | 10° |
| 2026-05-01 14:55 | 57.91456 | 17.39176 | 34202 ft | 438 kts | 10° |
| 2026-05-01 14:55 | 57.97350 | 17.41831 | 34199 ft | 438 kts | 10° |
| 2026-05-01 14:56 | 58.03284 | 17.44513 | 34194 ft | 439 kts | 10° |
| 2026-05-01 14:56 | 58.09238 | 17.47213 | 34188 ft | 439 kts | 10° |
| 2026-05-01 14:57 | 58.15188 | 17.49921 | 34188 ft | 439 kts | 10° |
| 2026-05-01 14:57 | 58.24070 | 17.53980 | 34185 ft | 440 kts | 10° |
| 2026-05-01 14:58 | 58.30019 | 17.56710 | 34181 ft | 440 kts | 10° |
| 2026-05-01 14:58 | 58.33021 | 17.58090 | 33622 ft | 446 kts | 10° |
| 2026-05-01 14:58 | 58.36024 | 17.59473 | 32971 ft | 443 kts | 10° |
| 2026-05-01 14:59 | 58.39021 | 17.60858 | 32261 ft | 442 kts | 10° |
| 2026-05-01 14:59 | 58.42013 | 17.62243 | 31504 ft | 443 kts | 10° |
| 2026-05-01 14:59 | 58.45014 | 17.63633 | 30742 ft | 444 kts | 10° |
| 2026-05-01 14:59 | 58.48023 | 17.65030 | 29908 ft | 445 kts | 10° |
| 2026-05-01 15:00 | 58.53994 | 17.67811 | 28424 ft | 440 kts | 10° |
| 2026-05-01 15:00 | 58.56959 | 17.69198 | 27806 ft | 435 kts | 10° |
| 2026-05-01 15:00 | 58.59884 | 17.70569 | 27204 ft | 430 kts | 10° |
| 2026-05-01 15:01 | 58.62775 | 17.71924 | 26607 ft | 426 kts | 9° |
| 2026-05-01 15:01 | 58.65651 | 17.73274 | 26029 ft | 422 kts | 9° |
| 2026-05-01 15:01 | 58.68492 | 17.74609 | 25457 ft | 418 kts | 9° |
| 2026-05-01 15:01 | 58.71305 | 17.75933 | 24889 ft | 415 kts | 9° |
| 2026-05-01 15:02 | 58.74099 | 17.77249 | 24331 ft | 412 kts | 9° |
| 2026-05-01 15:02 | 58.75936 | 17.78116 | 23955 ft | 410 kts | 9° |
| 2026-05-01 15:02 | 58.79638 | 17.79866 | 23095 ft | 407 kts | 9° |
| 2026-05-01 15:02 | 58.82374 | 17.81163 | 22486 ft | 403 kts | 9° |
| 2026-05-01 15:03 | 58.85085 | 17.82450 | 21938 ft | 399 kts | 8° |
| 2026-05-01 15:03 | 58.87766 | 17.83725 | 21366 ft | 396 kts | 8° |
| 2026-05-01 15:03 | 58.90428 | 17.84993 | 20812 ft | 392 kts | 8° |
| 2026-05-01 15:03 | 58.93039 | 17.86237 | 20278 ft | 389 kts | 8° |
| 2026-05-01 15:04 | 58.95660 | 17.87488 | 19734 ft | 387 kts | 8° |
| 2026-05-01 15:04 | 58.98261 | 17.88732 | 19198 ft | 384 kts | 8° |
| 2026-05-01 15:04 | 59.00851 | 17.89972 | 18657 ft | 382 kts | 8° |
| 2026-05-01 15:04 | 59.03440 | 17.91213 | 18031 ft | 381 kts | 8° |
| 2026-05-01 15:05 | 59.06003 | 17.92446 | 17470 ft | 378 kts | 8° |
| 2026-05-01 15:05 | 59.08546 | 17.93670 | 16921 ft | 375 kts | 8° |
| 2026-05-01 15:05 | 59.11069 | 17.94885 | 16376 ft | 372 kts | 8° |
| 2026-05-01 15:05 | 59.13582 | 17.96097 | 15841 ft | 370 kts | 8° |
| 2026-05-01 15:06 | 59.16071 | 17.97300 | 15316 ft | 367 kts | 8° |
| 2026-05-01 15:06 | 59.18507 | 17.98479 | 14805 ft | 365 kts | 8° |
| 2026-05-01 15:06 | 59.20969 | 17.99673 | 14282 ft | 363 kts | 8° |
| 2026-05-01 15:06 | 59.23415 | 18.00860 | 13758 ft | 361 kts | 8° |
| 2026-05-01 15:07 | 59.25851 | 18.02044 | 13184 ft | 359 kts | 8° |
| 2026-05-01 15:07 | 59.28272 | 18.03223 | 12644 ft | 357 kts | 9° |
| 2026-05-01 15:07 | 59.30678 | 18.04396 | 12125 ft | 354 kts | 9° |
| 2026-05-01 15:07 | 59.33064 | 18.05561 | 11617 ft | 352 kts | 9° |
| 2026-05-01 15:08 | 59.35433 | 18.06720 | 11117 ft | 350 kts | 9° |
| 2026-05-01 15:08 | 59.37757 | 18.07862 | 10959 ft | 337 kts | 9° |
| 2026-05-01 15:08 | 59.39996 | 18.08967 | 10803 ft | 326 kts | 9° |
| 2026-05-01 15:08 | 59.42164 | 18.10036 | 10637 ft | 315 kts | 9° |
| 2026-05-01 15:09 | 59.44236 | 18.11038 | 10533 ft | 305 kts | 8° |
| 2026-05-01 15:09 | 59.46278 | 18.11771 | 10394 ft | 294 kts | 5° |
| 2026-05-01 15:09 | 59.48255 | 18.12503 | 10283 ft | 285 kts | 5° |
| 2026-05-01 15:09 | 59.50179 | 18.13172 | 10159 ft | 276 kts | 5° |
| 2026-05-01 15:10 | 59.52052 | 18.13817 | 9951 ft | 271 kts | 5° |
| 2026-05-01 15:10 | 59.55751 | 18.15068 | 9383 ft | 268 kts | 5° |
| 2026-05-01 15:10 | 59.57587 | 18.15683 | 9106 ft | 266 kts | 5° |
| 2026-05-01 15:11 | 59.59425 | 18.16296 | 8738 ft | 269 kts | 4° |
| 2026-05-01 15:11 | 59.63122 | 18.17522 | 8008 ft | 273 kts | 5° |
| 2026-05-01 15:11 | 59.65007 | 18.18134 | 7651 ft | 276 kts | 5° |
| 2026-05-01 15:12 | 59.66913 | 18.18742 | 7280 ft | 278 kts | 5° |
| 2026-05-01 15:12 | 59.70760 | 18.19972 | 6449 ft | 280 kts | 4° |
| 2026-05-01 15:12 | 59.72678 | 18.20591 | 5945 ft | 278 kts | 5° |
| 2026-05-01 15:13 | 59.78332 | 18.22406 | 4449 ft | 273 kts | 3° |
| 2026-05-01 15:14 | 59.81462 | 18.19839 | 3480 ft | 242 kts | 297° |
| 2026-05-01 15:14 | 59.81921 | 18.16722 | 3056 ft | 232 kts | 277° |
| 2026-05-01 15:14 | 59.82310 | 18.10675 | 2507 ft | 204 kts | 276° |
| 2026-05-01 15:15 | 59.81830 | 18.05699 | 2495 ft | 193 kts | 227° |
| 2026-05-01 15:15 | 59.80004 | 18.02221 | 2473 ft | 174 kts | 217° |
| 2026-05-01 15:16 | 59.77796 | 18.00778 | 2487 ft | 166 kts | 202° |
| 2026-05-01 15:16 | 59.75583 | 17.99745 | 2276 ft | 170 kts | 195° |
| 2026-05-01 15:17 | 59.73374 | 17.98973 | 1827 ft | 148 kts | 195° |
| 2026-05-01 15:18 | 59.70392 | 17.97888 | 1273 ft | 144 kts | 196° |
| 2026-05-01 15:18 | 59.69417 | 17.97532 | 1094 ft | 142 kts | 197° |
| 2026-05-01 15:19 | 59.66484 | 17.96496 | 483 ft | 147 kts | 195° |
| 2026-05-01 15:19 | 59.64498 | 17.95750 | 124 ft | 141 kts | 197° |
| 2026-05-01 15:19 | 59.63610 | 17.95417 | 124 ft | 116 kts | 191° |
| 2026-05-01 15:20 | 59.62673 | 17.95067 | 146 ft | 17 kts | 224° |
| 2026-05-01 15:20 | 59.62667 | 17.94882 | 145 ft | 18 kts | 288° |
| 2026-05-01 15:20 | 59.62694 | 17.94764 | 144 ft | 0 kts | 307° |
| 2026-05-01 15:21 | 59.62695 | 17.94761 | 144 ft | 2 kts | 307° |
| 2026-05-01 15:21 | 59.62733 | 17.94713 | 144 ft | 13 kts | 347° |
| 2026-05-01 15:22 | 59.63051 | 17.94816 | 138 ft | 34 kts | 10° |
| 2026-05-01 15:22 | 59.63222 | 17.94876 | 135 ft | 41 kts | 9° |
| 2026-05-01 15:22 | 59.63510 | 17.94971 | 130 ft | 42 kts | 9° |
| 2026-05-01 15:23 | 59.63746 | 17.95062 | 126 ft | 23 kts | 15° |
| 2026-05-01 15:23 | 59.63878 | 17.95128 | 123 ft | 16 kts | 12° |
| 2026-05-01 15:23 | 59.64001 | 17.95164 | 120 ft | 23 kts | 9° |
| 2026-05-01 15:23 | 59.64135 | 17.95209 | 117 ft | 17 kts | 11° |
| 2026-05-01 15:24 | 59.64253 | 17.95231 | 117 ft | 17 kts | 353° |
| 2026-05-01 15:24 | 59.64353 | 17.95132 | 114 ft | 16 kts | 313° |
| 2026-05-01 15:24 | 59.64403 | 17.94941 | 115 ft | 15 kts | 281° |
| 2026-05-01 15:24 | 59.64382 | 17.94709 | 114 ft | 22 kts | 243° |
| 2026-05-01 15:25 | 59.64286 | 17.94399 | 117 ft | 31 kts | 238° |
| 2026-05-01 15:25 | 59.64159 | 17.94002 | 118 ft | 36 kts | 238° |
| 2026-05-01 15:25 | 59.64030 | 17.93599 | 116 ft | 33 kts | 238° |
| 2026-05-01 15:25 | 59.64017 | 17.93192 | 115 ft | 30 kts | 297° |
| 2026-05-01 15:26 | 59.64111 | 17.92829 | 134 ft | 29 kts | 297° |
| 2026-05-01 15:26 | 59.64199 | 17.92488 | 112 ft | 27 kts | 297° |
| 2026-05-01 15:26 | 59.64282 | 17.92169 | 112 ft | 25 kts | 299° |
| 2026-05-01 15:26 | 59.64428 | 17.92106 | 113 ft | 23 kts | 8° |
| 2026-05-01 15:27 | 59.64585 | 17.92157 | 113 ft | 22 kts | 9° |
| 2026-05-01 15:27 | 59.64669 | 17.92338 | 114 ft | 22 kts | 104° |
| 2026-05-01 15:27 | 59.64673 | 17.92623 | 114 ft | 19 kts | 109° |
| 2026-05-01 15:28 | 59.64690 | 17.92730 | 114 ft | 2 kts | 20° |
| 2026-05-01 15:28 | 59.64695 | 17.92733 | 114 ft | 0 kts | 20° |
| 2026-05-01 15:28 | 59.64696 | 17.92734 | 114 ft | 0 kts | 20° |